Time;durP1;ratioP1;P1;durP2;ratioP2;P2;SDS_P1;SDS_P2;PMS_P1;PMS_P2;Temp;Humidity;BMP_temperature;BMP_pressure;BME280_temperature;BME280_humidity;BME280_pressure;Samples;Min_cycle;Max_cycle;Signal;HPM_P1;HPM_P2
2020/12/31 00:02:07;;;;;;;7.63;5.40;;;;;;;;;;5076494;28;20241;-80
2020/12/31 00:04:33;;;;;;;6.57;5.80;;;;;;;;;;5076354;28;20230;-83
2020/12/31 00:06:59;;;;;;;6.50;5.43;;;;;;;;;;5076536;28;20231;-84
2020/12/31 00:09:25;;;;;;;9.30;5.73;;;;;;;;;;5076263;28;20332;-80
2020/12/31 00:11:51;;;;;;;6.37;5.77;;;;;;;;;;5076454;28;20226;-78
2020/12/31 00:14:17;;;;;;;6.57;5.87;;;;;;;;;;5076245;28;20596;-82
2020/12/31 00:16:43;;;;;;;6.43;5.83;;;;;;;;;;5076002;28;20234;-80
2020/12/31 00:19:10;;;;;;;7.33;6.40;;;;;;;;;;5076201;28;20245;-81
2020/12/31 00:21:36;;;;;;;6.77;6.00;;;;;;;;;;5076177;28;20241;-79
2020/12/31 00:24:02;;;;;;;6.87;6.17;;;;;;;;;;5076029;28;20559;-83
2020/12/31 00:26:28;;;;;;;8.00;6.43;;;;;;;;;;5075824;28;20230;-84
2020/12/31 00:28:55;;;;;;;8.40;6.20;;;;;;;;;;5076186;28;20226;-81
2020/12/31 00:31:21;;;;;;;7.97;6.93;;;;;;;;;;5075622;28;20261;-81
2020/12/31 00:33:47;;;;;;;7.23;5.97;;;;;;;;;;5075956;28;20678;-80
2020/12/31 00:36:14;;;;;;;7.93;6.70;;;;;;;;;;5074366;28;20345;-78
2020/12/31 00:38:40;;;;;;;6.57;5.60;;;;;;;;;;5075914;28;20203;-80
2020/12/31 00:41:06;;;;;;;7.40;6.20;;;;;;;;;;5075488;28;20253;-84
2020/12/31 00:43:32;;;;;;;7.43;6.67;;;;;;;;;;5075827;28;20541;-83
2020/12/31 00:45:58;;;;;;;8.87;6.37;;;;;;;;;;5075833;28;20230;-84
2020/12/31 00:48:24;;;;;;;6.63;5.90;;;;;;;;;;5075801;28;20241;-84
2020/12/31 00:50:51;;;;;;;8.17;6.20;;;;;;;;;;5075702;28;20237;-84
2020/12/31 00:53:17;;;;;;;7.33;6.60;;;;;;;;;;5075698;28;20238;-80
2020/12/31 00:55:43;;;;;;;6.80;6.10;;;;;;;;;;5074710;28;20539;-78
2020/12/31 00:58:10;;;;;;;7.13;5.97;;;;;;;;;;5075631;28;20233;-79
2020/12/31 01:00:36;;;;;;;8.17;6.00;;;;;;;;;;5075566;28;20230;-83
2020/12/31 01:03:03;;;;;;;6.30;5.70;;;;;;;;;;5075364;28;20249;-81
2020/12/31 01:05:29;;;;;;;7.07;6.20;;;;;;;;;;5075524;28;20237;-82
2020/12/31 01:07:55;;;;;;;6.47;5.73;;;;;;;;;;5075506;28;20626;-78
2020/12/31 01:10:22;;;;;;;7.13;6.43;;;;;;;;;;5074329;28;20225;-83
2020/12/31 01:12:48;;;;;;;6.57;5.83;;;;;;;;;;5075382;28;20615;-83
2020/12/31 01:15:14;;;;;;;7.60;6.10;;;;;;;;;;5074754;28;20234;-80
2020/12/31 01:17:40;;;;;;;6.97;6.27;;;;;;;;;;5075314;28;20615;-83
2020/12/31 01:20:07;;;;;;;7.03;5.83;;;;;;;;;;5074860;28;20241;-79
2020/12/31 01:22:33;;;;;;;6.90;6.20;;;;;;;;;;5075106;28;20610;-82
2020/12/31 01:24:59;;;;;;;7.90;5.80;;;;;;;;;;5075158;28;20234;-81
2020/12/31 01:27:26;;;;;;;7.00;6.00;;;;;;;;;;5075240;28;20252;-83
2020/12/31 01:29:52;;;;;;;6.03;5.43;;;;;;;;;;5074508;28;20288;-77
2020/12/31 01:32:20;;;;;;;7.17;5.90;;;;;;;;;;5075148;28;20234;-80
2020/12/31 01:34:47;;;;;;;9.60;5.57;;;;;;;;;;5074483;28;20550;-80
2020/12/31 01:37:15;;;;;;;7.57;5.63;;;;;;;;;;5073301;28;20248;-78
2020/12/31 01:39:41;;;;;;;5.80;5.17;;;;;;;;;;5074302;28;20202;-78
2020/12/31 01:42:07;;;;;;;5.30;4.80;;;;;;;;;;5074765;28;20234;-81
2020/12/31 01:44:34;;;;;;;5.53;5.03;;;;;;;;;;5074445;28;20314;-83
2020/12/31 01:47:01;;;;;;;6.00;5.43;;;;;;;;;;5075052;28;20626;-81
2020/12/31 01:49:28;;;;;;;5.53;5.03;;;;;;;;;;5074457;28;20622;-80
2020/12/31 01:51:54;;;;;;;5.80;5.23;;;;;;;;;;5075107;28;20230;-83
2020/12/31 01:54:20;;;;;;;7.07;5.73;;;;;;;;;;5074424;28;20233;-77
2020/12/31 01:56:47;;;;;;;6.57;5.70;;;;;;;;;;5074976;28;20611;-79
2020/12/31 01:59:14;;;;;;;6.00;5.47;;;;;;;;;;5073310;28;20194;-79
2020/12/31 02:01:41;;;;;;;6.43;5.30;;;;;;;;;;5074899;28;20607;-81
2020/12/31 02:04:07;;;;;;;5.80;5.03;;;;;;;;;;5074306;28;20254;-81
2020/12/31 02:06:34;;;;;;;7.93;5.60;;;;;;;;;;5074775;28;20226;-77
2020/12/31 02:09:01;;;;;;;5.83;5.33;;;;;;;;;;5074364;28;20234;-78
2020/12/31 02:11:27;;;;;;;6.17;5.57;;;;;;;;;;5075213;28;20230;-83
2020/12/31 02:13:53;;;;;;;6.23;5.00;;;;;;;;;;5074323;28;20229;-80
2020/12/31 02:16:21;;;;;;;5.80;5.27;;;;;;;;;;5074701;28;20227;-79
2020/12/31 02:18:52;;;;;;;5.73;5.23;;;;;;;;;;5074255;28;20210;-83
2020/12/31 02:21:18;;;;;;;6.97;5.67;;;;;;;;;;5076890;28;20225;-81
2020/12/31 02:23:45;;;;;;;6.80;5.77;;;;;;;;;;5078034;28;20319;-80
2020/12/31 02:26:11;;;;;;;6.33;5.73;;;;;;;;;;5078799;28;20230;-79
2020/12/31 02:28:38;;;;;;;6.47;5.60;;;;;;;;;;5077814;28;20234;-80
2020/12/31 02:31:04;;;;;;;6.13;5.53;;;;;;;;;;5077982;28;20646;-80
2020/12/31 02:33:30;;;;;;;7.70;5.87;;;;;;;;;;5078057;28;20280;-79
2020/12/31 02:35:56;;;;;;;6.00;5.50;;;;;;;;;;5078391;28;20611;-84
2020/12/31 02:38:22;;;;;;;6.33;5.73;;;;;;;;;;5077899;28;20237;-83
2020/12/31 02:40:49;;;;;;;6.03;5.50;;;;;;;;;;5078205;28;20645;-79
2020/12/31 02:43:15;;;;;;;6.20;5.60;;;;;;;;;;5077839;28;20250;-84
2020/12/31 02:45:41;;;;;;;7.33;6.20;;;;;;;;;;5078156;28;20214;-81
2020/12/31 02:48:07;;;;;;;6.77;6.10;;;;;;;;;;5077519;28;20230;-82
2020/12/31 02:50:33;;;;;;;6.90;6.30;;;;;;;;;;5078069;28;20226;-83
2020/12/31 02:52:59;;;;;;;6.93;6.03;;;;;;;;;;5077750;28;20243;-81
2020/12/31 02:55:25;;;;;;;6.37;5.73;;;;;;;;;;5077879;28;20223;-79
2020/12/31 02:57:52;;;;;;;7.40;6.43;;;;;;;;;;5077414;28;20237;-78
2020/12/31 03:00:18;;;;;;;7.00;6.30;;;;;;;;;;5077751;28;20241;-84
2020/12/31 03:02:44;;;;;;;7.60;6.43;;;;;;;;;;5077481;28;20230;-79
2020/12/31 03:05:10;;;;;;;6.90;6.20;;;;;;;;;;5077770;28;20241;-82
2020/12/31 03:07:36;;;;;;;6.83;6.23;;;;;;;;;;5077613;28;20229;-85
2020/12/31 03:10:03;;;;;;;8.47;7.00;;;;;;;;;;5077565;28;20230;-81
2020/12/31 03:12:29;;;;;;;6.80;6.13;;;;;;;;;;5077580;28;20238;-80
2020/12/31 03:14:56;;;;;;;6.07;5.57;;;;;;;;;;5077604;28;20237;-80
2020/12/31 03:17:22;;;;;;;9.90;7.07;;;;;;;;;;5077598;28;20637;-82
2020/12/31 03:19:48;;;;;;;7.03;6.33;;;;;;;;;;5077701;28;20233;-80
2020/12/31 03:22:14;;;;;;;7.70;6.87;;;;;;;;;;5077536;28;20241;-83
2020/12/31 03:24:40;;;;;;;6.80;6.20;;;;;;;;;;5077341;28;20265;-83
2020/12/31 03:27:06;;;;;;;8.13;6.60;;;;;;;;;;5077479;28;20241;-83
2020/12/31 03:29:32;;;;;;;8.43;6.20;;;;;;;;;;5077164;28;20233;-82
2020/12/31 03:31:59;;;;;;;8.17;6.37;;;;;;;;;;5076057;28;20234;-84
2020/12/31 03:34:25;;;;;;;6.60;6.00;;;;;;;;;;5076949;28;20531;-82
2020/12/31 03:36:51;;;;;;;7.50;6.27;;;;;;;;;;5077250;28;20234;-80
2020/12/31 03:39:17;;;;;;;9.03;6.60;;;;;;;;;;5077163;28;20519;-79
2020/12/31 03:41:43;;;;;;;8.90;6.10;;;;;;;;;;5077103;28;20556;-82
2020/12/31 03:44:09;;;;;;;7.17;6.47;;;;;;;;;;5076310;28;20254;-79
2020/12/31 03:46:35;;;;;;;6.57;5.93;;;;;;;;;;5077049;28;20568;-80
2020/12/31 03:49:02;;;;;;;8.40;6.67;;;;;;;;;;5076685;28;20231;-82
2020/12/31 03:51:28;;;;;;;6.77;6.13;;;;;;;;;;5077005;28;20894;-82
2020/12/31 03:53:54;;;;;;;6.83;5.90;;;;;;;;;;5076990;28;20226;-81
2020/12/31 03:56:21;;;;;;;6.77;6.17;;;;;;;;;;5076883;28;20246;-80
2020/12/31 03:58:47;;;;;;;8.30;6.50;;;;;;;;;;5076503;28;20249;-81
2020/12/31 04:01:13;;;;;;;8.40;6.53;;;;;;;;;;5076717;28;20230;-79
2020/12/31 04:03:39;;;;;;;7.63;6.60;;;;;;;;;;5076336;28;20250;-81
2020/12/31 04:06:06;;;;;;;8.03;6.17;;;;;;;;;;5076826;28;20226;-82
2020/12/31 04:08:32;;;;;;;7.00;5.80;;;;;;;;;;5076175;28;20237;-78
2020/12/31 04:10:58;;;;;;;7.63;6.40;;;;;;;;;;5076930;28;20226;-85
2020/12/31 04:13:24;;;;;;;7.43;6.43;;;;;;;;;;5076008;28;20230;-80
2020/12/31 04:15:50;;;;;;;6.57;5.97;;;;;;;;;;5076666;28;20218;-83
2020/12/31 04:18:16;;;;;;;7.10;5.90;;;;;;;;;;5075887;28;20234;-79
2020/12/31 04:20:44;;;;;;;7.20;5.43;;;;;;;;;;5076526;28;20617;-79
2020/12/31 04:23:11;;;;;;;6.10;5.43;;;;;;;;;;5075743;28;20242;-81
2020/12/31 04:25:37;;;;;;;5.73;5.20;;;;;;;;;;5076531;28;20226;-79
2020/12/31 04:28:03;;;;;;;7.03;5.70;;;;;;;;;;5076025;28;20230;-82
2020/12/31 04:30:29;;;;;;;6.10;5.37;;;;;;;;;;5075789;28;20269;-82
2020/12/31 04:32:55;;;;;;;6.90;5.67;;;;;;;;;;5075512;28;20226;-81
2020/12/31 04:35:21;;;;;;;6.60;5.90;;;;;;;;;;5076126;28;20512;-79
2020/12/31 04:37:48;;;;;;;6.27;5.53;;;;;;;;;;5075584;28;20238;-81
2020/12/31 04:40:14;;;;;;;7.63;5.50;;;;;;;;;;5076026;28;20230;-84
2020/12/31 04:42:40;;;;;;;6.03;5.43;;;;;;;;;;5075521;28;20237;-82
2020/12/31 04:45:07;;;;;;;6.27;5.47;;;;;;;;;;5075645;28;20250;-80
2020/12/31 04:47:36;;;;;;;5.83;5.30;;;;;;;;;;5075681;28;20225;-79
2020/12/31 04:50:02;;;;;;;6.20;5.40;;;;;;;;;;5075760;28;20214;-81
2020/12/31 04:52:31;;;;;;;5.67;5.17;;;;;;;;;;5075625;28;20238;-82
2020/12/31 04:54:57;;;;;;;6.43;5.83;;;;;;;;;;5075797;28;20234;-81
2020/12/31 04:57:24;;;;;;;6.83;5.57;;;;;;;;;;5075150;28;20242;-79
2020/12/31 04:59:51;;;;;;;5.60;5.10;;;;;;;;;;5075683;28;20244;-80
2020/12/31 05:02:17;;;;;;;5.67;4.87;;;;;;;;;;5075273;28;20553;-82
2020/12/31 05:04:43;;;;;;;5.67;4.80;;;;;;;;;;5075585;28;20238;-81
2020/12/31 05:07:09;;;;;;;6.90;5.10;;;;;;;;;;5075526;28;20233;-84
2020/12/31 05:09:35;;;;;;;5.60;4.57;;;;;;;;;;5075589;28;20268;-83
2020/12/31 05:12:01;;;;;;;5.07;4.57;;;;;;;;;;5075365;28;20645;-85
2020/12/31 05:14:30;;;;;;;6.97;4.80;;;;;;;;;;5075337;28;20226;-83
2020/12/31 05:16:56;;;;;;;5.13;4.70;;;;;;;;;;5074954;28;20230;-84
2020/12/31 05:19:23;;;;;;;5.07;4.60;;;;;;;;;;5075118;28;20229;-88
2020/12/31 05:22:08;;;;;;;9.50;5.30;;;;;;;;;;5075562;28;20237;-85
2020/12/31 05:24:35;;;;;;;4.70;4.30;;;;;;;;;;5075240;28;20585;-85
2020/12/31 05:27:14;;;;;;;4.97;4.40;;;;;;;;;;5074671;28;20241;-86
2020/12/31 05:29:42;;;;;;;5.60;4.83;;;;;;;;;;5074906;28;20222;-83
2020/12/31 05:32:08;;;;;;;4.50;4.20;;;;;;;;;;5074632;28;20229;-88
2020/12/31 05:34:34;;;;;;;7.33;4.50;;;;;;;;;;5075627;28;20222;-93
2020/12/31 05:37:12;;;;;;;5.57;4.53;;;;;;;;;;5075196;28;20206;-89
2020/12/31 05:39:53;;;;;;;4.73;4.33;;;;;;;;;;5075121;28;20233;-89
2020/12/31 05:42:20;;;;;;;5.93;4.30;;;;;;;;;;5075173;28;20236;-90
2020/12/31 05:44:58;;;;;;;4.83;4.03;;;;;;;;;;5075194;28;20250;-87
2020/12/31 05:47:24;;;;;;;4.90;4.40;;;;;;;;;;5074765;28;20244;-87
2020/12/31 05:49:52;;;;;;;4.53;3.70;;;;;;;;;;5075101;28;20230;-88
2020/12/31 05:52:32;;;;;;;5.40;3.87;;;;;;;;;;5075086;28;20213;-92
2020/12/31 05:55:00;;;;;;;4.33;3.80;;;;;;;;;;5074173;28;20760;-84
2020/12/31 05:57:29;;;;;;;4.10;3.27;;;;;;;;;;5074634;28;20562;-87
2020/12/31 05:59:55;;;;;;;4.50;3.57;;;;;;;;;;5074694;28;20237;-87
2020/12/31 06:02:23;;;;;;;4.27;3.87;;;;;;;;;;5074491;28;20516;-88
2020/12/31 06:04:55;;;;;;;3.87;3.50;;;;;;;;;;5074613;28;20790;-87
2020/12/31 06:07:29;;;;;;;4.40;3.63;;;;;;;;;;5074479;28;20245;-88
2020/12/31 06:10:00;;;;;;;4.50;3.30;;;;;;;;;;5074246;28;20227;-86
2020/12/31 06:12:29;;;;;;;3.87;3.57;;;;;;;;;;5073704;28;20534;-88
2020/12/31 06:14:59;;;;;;;3.50;3.20;;;;;;;;;;5073749;28;20544;-88
2020/12/31 06:17:26;;;;;;;5.73;3.30;;;;;;;;;;5073860;28;20237;-87
2020/12/31 06:20:00;;;;;;;4.17;3.77;;;;;;;;;;5074303;28;20237;-88
2020/12/31 06:22:34;;;;;;;3.23;3.00;;;;;;;;;;5074498;28;20230;-89
2020/12/31 06:25:04;;;;;;;3.30;3.03;;;;;;;;;;5074681;28;20535;-84
2020/12/31 06:27:39;;;;;;;4.87;3.80;;;;;;;;;;5074507;28;20238;-90
2020/12/31 06:30:05;;;;;;;5.10;3.13;;;;;;;;;;5074655;28;20333;-88
2020/12/31 06:32:35;;;;;;;3.87;3.40;;;;;;;;;;5074098;28;20222;-86
2020/12/31 06:35:03;;;;;;;3.50;3.30;;;;;;;;;;5074522;28;20233;-86
2020/12/31 06:37:30;;;;;;;3.13;2.93;;;;;;;;;;5074305;28;20213;-87
2020/12/31 06:40:11;;;;;;;3.50;3.20;;;;;;;;;;5074621;28;20634;-87
2020/12/31 06:42:52;;;;;;;3.00;2.80;;;;;;;;;;5073891;28;20654;-88
2020/12/31 06:45:32;;;;;;;3.23;3.03;;;;;;;;;;5074215;28;20644;-85
2020/12/31 06:47:59;;;;;;;3.67;3.27;;;;;;;;;;5073880;28;20229;-88
2020/12/31 06:50:53;;;;;;;3.37;3.17;;;;;;;;;;5074535;28;20213;-86
2020/12/31 06:53:36;;;;;;;3.10;2.90;;;;;;;;;;5074577;28;20256;-83
2020/12/31 06:56:03;;;;;;;3.03;2.83;;;;;;;;;;5074428;28;20211;-86
2020/12/31 06:58:30;;;;;;;3.40;3.10;;;;;;;;;;5074313;28;20258;-86
2020/12/31 07:00:56;;;;;;;3.37;3.07;;;;;;;;;;5074090;28;20233;-86
2020/12/31 07:03:40;;;;;;;3.03;2.83;;;;;;;;;;5073860;28;20234;-85
2020/12/31 07:06:26;;;;;;;3.97;3.33;;;;;;;;;;5074161;28;20233;-86
2020/12/31 07:08:53;;;;;;;3.87;3.20;;;;;;;;;;5077118;28;20210;-85
2020/12/31 07:11:27;;;;;;;4.00;3.60;;;;;;;;;;5077634;28;20234;-85
2020/12/31 07:13:54;;;;;;;3.63;3.33;;;;;;;;;;5077273;28;20267;-84
2020/12/31 07:16:35;;;;;;;3.27;3.03;;;;;;;;;;5077606;28;20210;-78
2020/12/31 07:19:02;;;;;;;3.50;3.20;;;;;;;;;;5077323;28;20249;-85
2020/12/31 07:21:29;;;;;;;4.67;3.57;;;;;;;;;;5077492;28;20602;-79
2020/12/31 07:23:55;;;;;;;4.63;4.20;;;;;;;;;;5077428;28;20274;-78
2020/12/31 07:26:23;;;;;;;4.10;3.77;;;;;;;;;;5077069;28;20286;-78
2020/12/31 07:28:50;;;;;;;4.47;4.07;;;;;;;;;;5077328;28;20223;-78
2020/12/31 07:31:31;;;;;;;3.87;3.57;;;;;;;;;;5076805;28;20230;-83
2020/12/31 07:34:17;;;;;;;4.10;3.70;;;;;;;;;;5076962;28;20245;-86
2020/12/31 07:36:55;;;;;;;5.03;4.50;;;;;;;;;;5077104;28;20230;-84
2020/12/31 07:39:21;;;;;;;5.30;4.00;;;;;;;;;;5077401;28;20598;-82
2020/12/31 07:41:47;;;;;;;10.57;5.90;;;;;;;;;;5077073;28;20662;-86
2020/12/31 07:44:13;;;;;;;16.47;8.23;;;;;;;;;;5077130;28;20247;-78
2020/12/31 07:46:39;;;;;;;7.73;5.23;;;;;;;;;;5076947;28;20202;-78
2020/12/31 07:49:09;;;;;;;7.37;5.47;;;;;;;;;;5077093;28;20230;-78
2020/12/31 07:51:35;;;;;;;8.50;5.67;;;;;;;;;;5076853;28;20223;-80
2020/12/31 07:54:03;;;;;;;6.77;4.50;;;;;;;;;;5077084;28;20572;-83
2020/12/31 07:56:29;;;;;;;7.80;4.90;;;;;;;;;;5076398;28;20245;-80
2020/12/31 07:58:56;;;;;;;7.80;4.87;;;;;;;;;;5079794;28;20236;-85
2020/12/31 08:01:23;;;;;;;8.27;5.30;;;;;;;;;;5091266;28;20238;-80
2020/12/31 08:03:49;;;;;;;4.83;4.43;;;;;;;;;;5096385;28;20237;-79
2020/12/31 08:06:15;;;;;;;5.37;4.20;;;;;;;;;;5096607;28;20221;-76
2020/12/31 08:08:41;;;;;;;19.83;7.77;;;;;;;;;;5097527;28;20242;-80
2020/12/31 08:11:09;;;;;;;15.00;6.93;;;;;;;;;;5084278;28;20214;-86
2020/12/31 08:13:35;;;;;;;12.37;6.40;;;;;;;;;;5076027;28;20857;-85
2020/12/31 08:16:01;;;;;;;5.60;4.63;;;;;;;;;;5076484;28;20645;-77
2020/12/31 08:18:29;;;;;;;6.77;4.23;;;;;;;;;;5076049;28;20182;-79
2020/12/31 08:20:57;;;;;;;4.40;4.00;;;;;;;;;;5076462;28;20210;-78
2020/12/31 08:23:26;;;;;;;4.10;3.80;;;;;;;;;;5076131;28;20241;-83
2020/12/31 08:25:54;;;;;;;4.53;4.13;;;;;;;;;;5076288;28;20242;-78
2020/12/31 08:28:21;;;;;;;4.70;3.80;;;;;;;;;;5076307;28;20234;-84
2020/12/31 08:30:48;;;;;;;5.60;4.03;;;;;;;;;;5075770;28;20246;-78
2020/12/31 08:33:21;;;;;;;8.20;5.00;;;;;;;;;;5075932;28;20237;-81
2020/12/31 08:35:47;;;;;;;17.10;7.00;;;;;;;;;;5076323;28;20253;-79
2020/12/31 08:38:15;;;;;;;5.63;4.93;;;;;;;;;;5076380;28;20230;-87
2020/12/31 08:40:42;;;;;;;4.20;3.80;;;;;;;;;;5077872;28;20207;-89
2020/12/31 08:43:15;;;;;;;4.83;4.37;;;;;;;;;;5077335;28;20593;-88
2020/12/31 08:45:42;;;;;;;4.47;3.70;;;;;;;;;;5077064;28;20246;-90
2020/12/31 08:48:12;;;;;;;3.47;3.17;;;;;;;;;;5077016;28;20209;-91
2020/12/31 08:50:38;;;;;;;5.37;3.70;;;;;;;;;;5076709;28;20234;-86
2020/12/31 08:53:04;;;;;;;3.47;3.17;;;;;;;;;;5075876;28;20649;-81
2020/12/31 08:55:33;;;;;;;3.80;3.50;;;;;;;;;;5074816;28;20230;-79
2020/12/31 08:58:13;;;;;;;4.30;3.40;;;;;;;;;;5082292;28;20506;-77
2020/12/31 09:00:39;;;;;;;3.83;3.30;;;;;;;;;;5084793;28;20232;-77
2020/12/31 09:03:06;;;;;;;4.47;3.73;;;;;;;;;;5075794;28;20225;-79
2020/12/31 09:05:32;;;;;;;3.87;3.53;;;;;;;;;;5075208;28;20477;-78
2020/12/31 09:08:02;;;;;;;5.83;4.20;;;;;;;;;;5074833;28;20681;-79
2020/12/31 09:10:30;;;;;;;5.83;4.67;;;;;;;;;;5072450;28;20222;-86
2020/12/31 09:12:56;;;;;;;4.50;4.07;;;;;;;;;;5074931;28;20233;-79
2020/12/31 09:15:22;;;;;;;4.10;3.80;;;;;;;;;;5075040;28;20226;-77
2020/12/31 09:17:49;;;;;;;4.13;3.80;;;;;;;;;;5073727;28;20218;-79
2020/12/31 09:20:19;;;;;;;3.93;3.60;;;;;;;;;;5074805;28;20219;-78
2020/12/31 09:22:45;;;;;;;3.83;3.53;;;;;;;;;;5074522;28;20591;-85
2020/12/31 09:25:12;;;;;;;4.17;3.87;;;;;;;;;;5074924;28;20627;-80
2020/12/31 09:27:39;;;;;;;4.20;3.63;;;;;;;;;;5074701;28;20551;-81
2020/12/31 09:30:09;;;;;;;4.17;3.77;;;;;;;;;;5073494;28;20254;-82
2020/12/31 09:32:35;;;;;;;5.80;3.90;;;;;;;;;;5074310;28;20222;-77
2020/12/31 09:35:02;;;;;;;5.47;3.80;;;;;;;;;;5074611;28;20222;-79
2020/12/31 09:37:29;;;;;;;4.00;3.60;;;;;;;;;;5071521;28;20649;-78
2020/12/31 09:39:55;;;;;;;4.80;4.40;;;;;;;;;;5074393;28;20611;-78
2020/12/31 09:42:22;;;;;;;4.70;4.30;;;;;;;;;;5074169;28;20222;-80
2020/12/31 09:44:48;;;;;;;4.30;4.00;;;;;;;;;;5075643;28;20246;-88
2020/12/31 09:47:14;;;;;;;5.17;4.50;;;;;;;;;;5074490;28;20234;-78
2020/12/31 09:49:40;;;;;;;5.87;4.07;;;;;;;;;;5075584;28;20638;-80
2020/12/31 09:52:07;;;;;;;6.68;6.00;;;;;;;;;;5074218;28;20745;-80
2020/12/31 09:54:34;;;;;;;5.57;4.73;;;;;;;;;;5074841;28;20245;-81
2020/12/31 09:57:00;;;;;;;4.73;4.27;;;;;;;;;;5075109;28;20233;-78
2020/12/31 09:59:26;;;;;;;4.00;3.60;;;;;;;;;;5074672;28;20241;-79
2020/12/31 10:01:52;;;;;;;3.33;3.13;;;;;;;;;;5075172;28;20846;-79
2020/12/31 10:04:18;;;;;;;3.10;2.90;;;;;;;;;;5074941;28;20282;-88
2020/12/31 10:06:44;;;;;;;3.53;3.03;;;;;;;;;;5074681;28;20234;-80
2020/12/31 10:09:12;;;;;;;5.70;3.70;;;;;;;;;;5073939;28;20619;-87
2020/12/31 10:11:43;;;;;;;3.57;3.23;;;;;;;;;;5074681;28;20226;-79
2020/12/31 10:14:09;;;;;;;4.33;3.93;;;;;;;;;;5072772;28;20250;-79
2020/12/31 10:16:36;;;;;;;5.23;4.23;;;;;;;;;;5073742;28;20230;-85
2020/12/31 10:19:02;;;;;;;4.40;4.00;;;;;;;;;;5074636;28;20222;-80
2020/12/31 10:21:28;;;;;;;6.23;4.20;;;;;;;;;;5074526;28;20645;-79
2020/12/31 10:23:54;;;;;;;4.10;3.80;;;;;;;;;;5074293;28;20222;-85
2020/12/31 10:26:20;;;;;;;7.10;4.07;;;;;;;;;;5073758;28;20242;-85
2020/12/31 10:28:47;;;;;;;5.97;4.23;;;;;;;;;;5074330;28;20223;-85
2020/12/31 10:31:13;;;;;;;4.50;4.10;;;;;;;;;;5073738;28;20258;-77
2020/12/31 10:33:39;;;;;;;5.78;5.18;;;;;;;;;;5074327;28;20768;-85
2020/12/31 10:36:05;;;;;;;4.53;4.17;;;;;;;;;;5075126;28;20234;-78
2020/12/31 10:38:31;;;;;;;4.33;4.03;;;;;;;;;;5074690;28;20608;-85
2020/12/31 10:40:57;;;;;;;4.57;4.10;;;;;;;;;;5074478;28;20231;-81
2020/12/31 10:43:23;;;;;;;4.87;3.87;;;;;;;;;;5078381;28;20245;-80
2020/12/31 10:45:50;;;;;;;4.40;4.00;;;;;;;;;;5078731;28;20256;-80
2020/12/31 10:48:16;;;;;;;4.23;3.70;;;;;;;;;;5078504;28;20227;-78
2020/12/31 10:50:42;;;;;;;3.60;3.30;;;;;;;;;;5078152;28;20237;-82
2020/12/31 10:53:09;;;;;;;4.33;3.73;;;;;;;;;;5078389;28;20539;-80
2020/12/31 10:55:35;;;;;;;5.80;3.20;;;;;;;;;;5077540;28;20233;-80
2020/12/31 10:58:01;;;;;;;6.63;3.30;;;;;;;;;;5077919;28;20642;-82
2020/12/31 11:00:27;;;;;;;3.20;3.00;;;;;;;;;;5077639;28;20226;-80
2020/12/31 11:02:54;;;;;;;3.70;3.40;;;;;;;;;;5077928;28;20241;-82
2020/12/31 11:05:20;;;;;;;3.10;2.90;;;;;;;;;;5077948;28;20254;-80
2020/12/31 11:07:46;;;;;;;3.10;2.80;;;;;;;;;;5077653;28;20230;-80
2020/12/31 11:10:12;;;;;;;3.53;3.20;;;;;;;;;;5077665;28;20226;-80
2020/12/31 11:12:38;;;;;;;3.50;3.30;;;;;;;;;;5077871;28;20241;-82
2020/12/31 11:15:04;;;;;;;3.73;3.33;;;;;;;;;;5077774;28;20230;-83
2020/12/31 11:17:30;;;;;;;3.80;3.47;;;;;;;;;;5077618;28;20227;-80
2020/12/31 11:19:57;;;;;;;4.43;4.07;;;;;;;;;;5077371;28;20241;-81
2020/12/31 11:22:23;;;;;;;4.00;3.60;;;;;;;;;;5077285;28;20230;-81
2020/12/31 11:24:50;;;;;;;4.60;4.20;;;;;;;;;;5077167;28;20606;-83
2020/12/31 11:27:16;;;;;;;4.87;4.47;;;;;;;;;;5077179;28;20238;-78
2020/12/31 11:29:42;;;;;;;5.73;4.47;;;;;;;;;;5077019;28;20234;-82
2020/12/31 11:32:08;;;;;;;6.00;4.80;;;;;;;;;;5077402;28;20226;-82
2020/12/31 11:34:34;;;;;;;5.67;5.03;;;;;;;;;;5077100;28;20235;-81
2020/12/31 11:37:02;;;;;;;5.60;4.77;;;;;;;;;;5077067;28;20222;-82
2020/12/31 11:39:28;;;;;;;6.97;5.03;;;;;;;;;;5076828;28;20229;-81
2020/12/31 11:41:57;;;;;;;7.50;5.80;;;;;;;;;;5076829;28;20488;-81
2020/12/31 11:44:24;;;;;;;9.00;6.37;;;;;;;;;;5077103;28;20615;-82
2020/12/31 11:46:50;;;;;;;5.63;5.13;;;;;;;;;;5076601;28;20257;-82
2020/12/31 11:49:16;;;;;;;7.37;5.60;;;;;;;;;;5077166;28;20276;-82
2020/12/31 11:51:42;;;;;;;6.57;5.53;;;;;;;;;;5077344;28;20279;-82
2020/12/31 11:54:10;;;;;;;6.67;5.47;;;;;;;;;;5076061;28;20226;-81
2020/12/31 11:56:38;;;;;;;6.97;5.53;;;;;;;;;;5076402;28;20234;-82
2020/12/31 11:59:05;;;;;;;7.10;5.63;;;;;;;;;;5077009;28;20526;-83
2020/12/31 12:01:31;;;;;;;5.53;5.07;;;;;;;;;;5076446;28;20256;-82
2020/12/31 12:03:57;;;;;;;6.30;5.70;;;;;;;;;;5079989;28;20226;-83
2020/12/31 12:06:23;;;;;;;7.53;5.67;;;;;;;;;;5088768;28;20242;-82
2020/12/31 12:08:49;;;;;;;5.80;5.30;;;;;;;;;;5076035;28;20233;-83
2020/12/31 12:11:16;;;;;;;5.40;4.90;;;;;;;;;;5076141;28;20226;-82
2020/12/31 12:13:42;;;;;;;6.00;5.40;;;;;;;;;;5076089;28;20233;-82
2020/12/31 12:16:08;;;;;;;6.13;5.53;;;;;;;;;;5076050;28;20227;-81
2020/12/31 12:18:34;;;;;;;6.63;5.97;;;;;;;;;;5076113;28;20226;-80
2020/12/31 12:21:01;;;;;;;8.93;6.43;;;;;;;;;;5059904;28;20222;-85
2020/12/31 12:23:27;;;;;;;6.30;5.70;;;;;;;;;;5076695;28;20633;-89
2020/12/31 12:25:53;;;;;;;6.00;5.33;;;;;;;;;;5077368;28;20250;-84
2020/12/31 12:28:20;;;;;;;6.73;6.00;;;;;;;;;;5076331;28;20234;-85
2020/12/31 12:30:46;;;;;;;6.83;6.13;;;;;;;;;;5075397;28;20250;-85
2020/12/31 12:33:12;;;;;;;6.40;5.80;;;;;;;;;;5076280;28;20234;-83
2020/12/31 12:35:38;;;;;;;8.73;6.20;;;;;;;;;;5075576;28;20227;-86
2020/12/31 12:38:07;;;;;;;6.47;5.87;;;;;;;;;;5075926;28;20238;-84
2020/12/31 12:40:33;;;;;;;10.43;6.67;;;;;;;;;;5075590;28;20230;-82
2020/12/31 12:42:59;;;;;;;8.87;5.93;;;;;;;;;;5075558;28;20246;-84
2020/12/31 12:45:26;;;;;;;6.53;5.40;;;;;;;;;;5074830;28;20650;-83
2020/12/31 12:47:52;;;;;;;6.87;6.17;;;;;;;;;;5074889;28;20234;-83
2020/12/31 12:50:18;;;;;;;6.87;6.17;;;;;;;;;;5075224;28;20233;-83
2020/12/31 12:52:44;;;;;;;9.03;5.93;;;;;;;;;;5075202;28;20210;-82
2020/12/31 12:55:10;;;;;;;7.97;5.63;;;;;;;;;;5074743;28;20230;-85
2020/12/31 12:57:36;;;;;;;7.77;6.23;;;;;;;;;;5074908;28;20234;-83
2020/12/31 13:00:03;;;;;;;7.17;6.13;;;;;;;;;;5074520;28;20230;-83
2020/12/31 13:02:30;;;;;;;6.83;6.23;;;;;;;;;;5073817;28;20641;-82
2020/12/31 13:04:56;;;;;;;6.80;6.20;;;;;;;;;;5074496;28;20237;-81
2020/12/31 13:07:22;;;;;;;6.30;5.70;;;;;;;;;;5075120;28;20230;-82
2020/12/31 13:09:48;;;;;;;7.63;6.93;;;;;;;;;;5074408;28;20230;-84
2020/12/31 13:12:14;;;;;;;9.30;6.50;;;;;;;;;;5074865;28;20234;-80
2020/12/31 13:14:41;;;;;;;7.03;6.37;;;;;;;;;;5074337;28;20229;-81
2020/12/31 13:17:07;;;;;;;6.70;6.10;;;;;;;;;;5074986;28;20226;-83
2020/12/31 13:19:34;;;;;;;8.50;6.93;;;;;;;;;;5074368;28;20535;-80
2020/12/31 13:22:01;;;;;;;7.47;6.77;;;;;;;;;;5074944;28;20225;-80
2020/12/31 13:24:27;;;;;;;9.17;6.73;;;;;;;;;;5074241;28;20678;-81
2020/12/31 13:26:53;;;;;;;7.93;6.23;;;;;;;;;;5074530;28;20250;-80
2020/12/31 13:29:19;;;;;;;7.40;6.70;;;;;;;;;;5074144;28;20684;-80
2020/12/31 13:31:45;;;;;;;6.97;6.27;;;;;;;;;;5074356;28;20254;-81
2020/12/31 13:34:11;;;;;;;7.37;6.63;;;;;;;;;;5074150;28;20226;-80
2020/12/31 13:36:39;;;;;;;7.00;6.30;;;;;;;;;;5074483;28;20499;-81
2020/12/31 13:39:05;;;;;;;7.43;6.73;;;;;;;;;;5073626;28;20694;-81
2020/12/31 13:41:31;;;;;;;43.40;23.93;;;;;;;;;;5074623;28;20542;-83
2020/12/31 13:43:57;;;;;;;31.30;20.60;;;;;;;;;;5073881;28;20536;-82
2020/12/31 13:46:23;;;;;;;32.37;21.87;;;;;;;;;;5081580;28;20249;-81
2020/12/31 13:48:50;;;;;;;12.43;9.83;;;;;;;;;;5093954;28;20226;-81
2020/12/31 13:51:16;;;;;;;8.53;6.87;;;;;;;;;;5094416;28;20229;-82
2020/12/31 13:53:43;;;;;;;7.20;5.80;;;;;;;;;;5094252;28;20537;-81
2020/12/31 13:56:10;;;;;;;8.47;6.73;;;;;;;;;;5076375;28;20530;-79
2020/12/31 13:58:36;;;;;;;6.63;5.63;;;;;;;;;;5074090;28;20237;-80
2020/12/31 14:01:03;;;;;;;8.10;7.30;;;;;;;;;;5074019;28;20271;-81
2020/12/31 14:03:29;;;;;;;9.30;6.63;;;;;;;;;;5074018;28;20539;-82
2020/12/31 14:05:56;;;;;;;7.47;6.57;;;;;;;;;;5073687;28;20256;-80
2020/12/31 14:08:23;;;;;;;9.53;7.37;;;;;;;;;;5073832;28;20544;-81
2020/12/31 14:10:51;;;;;;;7.47;6.57;;;;;;;;;;5073761;28;20230;-78
2020/12/31 14:13:17;;;;;;;6.73;6.13;;;;;;;;;;5092059;28;20229;-81
2020/12/31 14:15:44;;;;;;;6.60;5.77;;;;;;;;;;5094477;28;20229;-81
2020/12/31 14:18:10;;;;;;;6.67;6.07;;;;;;;;;;5097170;28;20268;-84
2020/12/31 14:20:37;;;;;;;8.03;6.97;;;;;;;;;;5098248;28;20606;-84
2020/12/31 14:23:03;;;;;;;7.30;6.57;;;;;;;;;;5098300;28;20225;-81
2020/12/31 14:25:29;;;;;;;6.50;5.90;;;;;;;;;;5097889;28;20597;-79
2020/12/31 14:27:56;;;;;;;7.13;5.60;;;;;;;;;;5098317;28;20237;-80
2020/12/31 14:30:22;;;;;;;7.67;6.83;;;;;;;;;;5097493;28;20251;-80
2020/12/31 14:32:48;;;;;;;7.23;6.40;;;;;;;;;;5097740;28;20236;-83
2020/12/31 14:35:14;;;;;;;7.63;6.83;;;;;;;;;;5097795;28;20614;-80
2020/12/31 14:37:40;;;;;;;8.57;7.67;;;;;;;;;;5098098;28;20319;-79
2020/12/31 14:40:07;;;;;;;11.37;7.10;;;;;;;;;;5097588;28;20237;-80
2020/12/31 14:42:33;;;;;;;8.73;6.53;;;;;;;;;;5097812;28;20248;-80
2020/12/31 14:45:00;;;;;;;7.23;6.53;;;;;;;;;;5097481;28;20236;-80